sensor_id;sensor_type;location;lat;lon;timestamp;temperature;humidity
14172;DHT22;7165;52.388;4.928;2024-02-14T00:00:03;8.90;99.90
14172;DHT22;7165;52.388;4.928;2024-02-14T00:02:30;8.90;99.90
14172;DHT22;7165;52.388;4.928;2024-02-14T00:04:57;8.90;99.90
14172;DHT22;7165;52.388;4.928;2024-02-14T00:07:26;8.90;99.90
14172;DHT22;7165;52.388;4.928;2024-02-14T00:09:52;9.00;99.90
14172;DHT22;7165;52.388;4.928;2024-02-14T00:12:20;9.00;99.90
14172;DHT22;7165;52.388;4.928;2024-02-14T00:14:48;9.00;99.90
14172;DHT22;7165;52.388;4.928;2024-02-14T00:17:15;9.00;99.90
14172;DHT22;7165;52.388;4.928;2024-02-14T00:19:42;9.10;99.90
14172;DHT22;7165;52.388;4.928;2024-02-14T00:22:09;9.10;99.90
14172;DHT22;7165;52.388;4.928;2024-02-14T00:24:37;9.10;99.90
14172;DHT22;7165;52.388;4.928;2024-02-14T00:27:04;9.10;99.90
14172;DHT22;7165;52.388;4.928;2024-02-14T00:29:31;9.10;99.90
14172;DHT22;7165;52.388;4.928;2024-02-14T00:31:59;9.10;99.90
14172;DHT22;7165;52.388;4.928;2024-02-14T00:34:26;9.10;99.90
14172;DHT22;7165;52.388;4.928;2024-02-14T00:36:53;9.10;99.90
14172;DHT22;7165;52.388;4.928;2024-02-14T00:39:20;9.20;99.90
14172;DHT22;7165;52.388;4.928;2024-02-14T00:41:48;9.20;99.90
14172;DHT22;7165;52.388;4.928;2024-02-14T00:44:18;9.10;99.90
14172;DHT22;7165;52.388;4.928;2024-02-14T00:46:45;9.20;99.90
14172;DHT22;7165;52.388;4.928;2024-02-14T00:49:12;9.20;99.90
14172;DHT22;7165;52.388;4.928;2024-02-14T00:51:39;9.20;99.90
14172;DHT22;7165;52.388;4.928;2024-02-14T00:54:06;9.20;99.90
14172;DHT22;7165;52.388;4.928;2024-02-14T00:56:33;9.30;99.90
14172;DHT22;7165;52.388;4.928;2024-02-14T00:59:02;9.30;99.90
14172;DHT22;7165;52.388;4.928;2024-02-14T01:01:29;9.30;99.90
14172;DHT22;7165;52.388;4.928;2024-02-14T01:03:55;9.30;99.90
14172;DHT22;7165;52.388;4.928;2024-02-14T01:06:22;9.30;99.90
14172;DHT22;7165;52.388;4.928;2024-02-14T01:08:50;9.30;99.90
14172;DHT22;7165;52.388;4.928;2024-02-14T01:11:17;9.40;99.90
14172;DHT22;7165;52.388;4.928;2024-02-14T01:13:43;9.40;99.90
14172;DHT22;7165;52.388;4.928;2024-02-14T01:16:12;9.40;99.90
14172;DHT22;7165;52.388;4.928;2024-02-14T01:18:39;9.40;99.90
14172;DHT22;7165;52.388;4.928;2024-02-14T01:21:06;9.50;99.90
14172;DHT22;7165;52.388;4.928;2024-02-14T01:23:32;9.50;99.90
14172;DHT22;7165;52.388;4.928;2024-02-14T01:25:59;9.50;99.90
14172;DHT22;7165;52.388;4.928;2024-02-14T01:28:27;9.50;99.90
14172;DHT22;7165;52.388;4.928;2024-02-14T01:30:54;9.60;99.90
14172;DHT22;7165;52.388;4.928;2024-02-14T01:33:23;9.60;99.90
14172;DHT22;7165;52.388;4.928;2024-02-14T01:35:50;9.60;99.90
14172;DHT22;7165;52.388;4.928;2024-02-14T01:38:17;9.70;99.90
14172;DHT22;7165;52.388;4.928;2024-02-14T01:40:44;9.70;99.90
14172;DHT22;7165;52.388;4.928;2024-02-14T01:43:12;9.70;99.90
14172;DHT22;7165;52.388;4.928;2024-02-14T01:45:40;9.80;99.90
14172;DHT22;7165;52.388;4.928;2024-02-14T01:48:08;9.80;99.90
14172;DHT22;7165;52.388;4.928;2024-02-14T01:50:37;9.80;99.90
14172;DHT22;7165;52.388;4.928;2024-02-14T01:53:06;9.90;99.90
14172;DHT22;7165;52.388;4.928;2024-02-14T01:55:34;9.90;99.90
14172;DHT22;7165;52.388;4.928;2024-02-14T01:58:01;9.90;99.90
14172;DHT22;7165;52.388;4.928;2024-02-14T02:00:30;9.90;99.90
14172;DHT22;7165;52.388;4.928;2024-02-14T02:02:58;9.90;99.90
14172;DHT22;7165;52.388;4.928;2024-02-14T02:05:25;9.90;99.90
14172;DHT22;7165;52.388;4.928;2024-02-14T02:07:53;9.90;99.90
14172;DHT22;7165;52.388;4.928;2024-02-14T02:10:20;9.90;99.90
14172;DHT22;7165;52.388;4.928;2024-02-14T02:12:47;9.90;99.90
14172;DHT22;7165;52.388;4.928;2024-02-14T02:15:16;9.90;99.90
14172;DHT22;7165;52.388;4.928;2024-02-14T02:17:43;9.90;99.90
14172;DHT22;7165;52.388;4.928;2024-02-14T02:20:11;10.00;99.90
14172;DHT22;7165;52.388;4.928;2024-02-14T02:22:45;10.00;99.90
14172;DHT22;7165;52.388;4.928;2024-02-14T02:25:13;10.00;99.90
14172;DHT22;7165;52.388;4.928;2024-02-14T02:27:40;10.00;99.90
14172;DHT22;7165;52.388;4.928;2024-02-14T02:30:08;10.00;99.90
14172;DHT22;7165;52.388;4.928;2024-02-14T02:32:36;10.10;99.90
14172;DHT22;7165;52.388;4.928;2024-02-14T02:35:03;10.10;99.90
14172;DHT22;7165;52.388;4.928;2024-02-14T02:37:31;10.10;99.90
14172;DHT22;7165;52.388;4.928;2024-02-14T02:39:59;10.10;99.90
14172;DHT22;7165;52.388;4.928;2024-02-14T02:42:26;10.10;99.90
14172;DHT22;7165;52.388;4.928;2024-02-14T02:44:54;10.20;99.90
14172;DHT22;7165;52.388;4.928;2024-02-14T02:47:21;10.20;99.90
14172;DHT22;7165;52.388;4.928;2024-02-14T02:49:48;10.20;99.90
14172;DHT22;7165;52.388;4.928;2024-02-14T02:52:15;10.20;99.90
14172;DHT22;7165;52.388;4.928;2024-02-14T02:54:42;10.20;99.90
14172;DHT22;7165;52.388;4.928;2024-02-14T02:57:11;10.20;99.90
14172;DHT22;7165;52.388;4.928;2024-02-14T02:59:37;10.30;99.90
14172;DHT22;7165;52.388;4.928;2024-02-14T03:02:08;10.30;99.90
14172;DHT22;7165;52.388;4.928;2024-02-14T03:04:37;10.30;99.90
14172;DHT22;7165;52.388;4.928;2024-02-14T03:07:05;10.30;99.90
14172;DHT22;7165;52.388;4.928;2024-02-14T03:09:33;10.30;99.90
14172;DHT22;7165;52.388;4.928;2024-02-14T03:12:00;10.40;99.90
14172;DHT22;7165;52.388;4.928;2024-02-14T03:14:30;10.50;99.90
14172;DHT22;7165;52.388;4.928;2024-02-14T03:16:59;10.50;99.90
14172;DHT22;7165;52.388;4.928;2024-02-14T03:19:27;10.50;99.90
14172;DHT22;7165;52.388;4.928;2024-02-14T03:21:54;10.60;99.90
14172;DHT22;7165;52.388;4.928;2024-02-14T03:24:21;10.60;99.90
14172;DHT22;7165;52.388;4.928;2024-02-14T03:26:48;10.70;99.90
14172;DHT22;7165;52.388;4.928;2024-02-14T03:29:17;10.70;99.90
14172;DHT22;7165;52.388;4.928;2024-02-14T03:31:45;10.80;99.90
14172;DHT22;7165;52.388;4.928;2024-02-14T03:34:12;10.80;99.90
14172;DHT22;7165;52.388;4.928;2024-02-14T03:36:39;10.80;99.90
14172;DHT22;7165;52.388;4.928;2024-02-14T03:39:08;10.90;99.90
14172;DHT22;7165;52.388;4.928;2024-02-14T03:41:36;10.90;99.90
14172;DHT22;7165;52.388;4.928;2024-02-14T03:44:04;10.90;99.90
14172;DHT22;7165;52.388;4.928;2024-02-14T03:46:32;11.00;99.90
14172;DHT22;7165;52.388;4.928;2024-02-14T03:49:02;11.00;99.90
14172;DHT22;7165;52.388;4.928;2024-02-14T03:51:28;11.00;99.90
14172;DHT22;7165;52.388;4.928;2024-02-14T03:53:56;11.00;99.90
14172;DHT22;7165;52.388;4.928;2024-02-14T03:56:22;11.00;99.90
14172;DHT22;7165;52.388;4.928;2024-02-14T03:58:50;11.00;99.90
14172;DHT22;7165;52.388;4.928;2024-02-14T04:01:16;11.00;99.90
14172;DHT22;7165;52.388;4.928;2024-02-14T04:03:46;11.00;99.90
14172;DHT22;7165;52.388;4.928;2024-02-14T04:06:15;11.00;99.90
14172;DHT22;7165;52.388;4.928;2024-02-14T04:08:43;11.00;99.90
14172;DHT22;7165;52.388;4.928;2024-02-14T04:11:10;11.10;99.90
14172;DHT22;7165;52.388;4.928;2024-02-14T04:13:39;11.10;99.90
14172;DHT22;7165;52.388;4.928;2024-02-14T04:16:07;11.10;99.90
14172;DHT22;7165;52.388;4.928;2024-02-14T04:18:34;11.10;99.90
14172;DHT22;7165;52.388;4.928;2024-02-14T04:21:01;11.10;99.90
14172;DHT22;7165;52.388;4.928;2024-02-14T04:23:30;11.10;99.90
14172;DHT22;7165;52.388;4.928;2024-02-14T04:25:58;11.10;99.90
14172;DHT22;7165;52.388;4.928;2024-02-14T04:28:24;11.10;99.90
14172;DHT22;7165;52.388;4.928;2024-02-14T04:30:51;11.20;99.90
14172;DHT22;7165;52.388;4.928;2024-02-14T04:33:19;11.20;99.90
14172;DHT22;7165;52.388;4.928;2024-02-14T04:35:47;11.20;99.90
14172;DHT22;7165;52.388;4.928;2024-02-14T04:38:14;11.20;99.90
14172;DHT22;7165;52.388;4.928;2024-02-14T04:40:43;11.20;99.90
14172;DHT22;7165;52.388;4.928;2024-02-14T04:43:10;11.20;99.90
14172;DHT22;7165;52.388;4.928;2024-02-14T04:45:37;11.30;99.90
14172;DHT22;7165;52.388;4.928;2024-02-14T04:48:05;11.30;99.90
14172;DHT22;7165;52.388;4.928;2024-02-14T04:50:33;11.20;99.90
14172;DHT22;7165;52.388;4.928;2024-02-14T04:53:00;11.30;99.90
14172;DHT22;7165;52.388;4.928;2024-02-14T04:55:27;11.30;99.90
14172;DHT22;7165;52.388;4.928;2024-02-14T04:57:55;11.30;99.90
14172;DHT22;7165;52.388;4.928;2024-02-14T05:00:22;11.30;99.90
14172;DHT22;7165;52.388;4.928;2024-02-14T05:02:49;11.30;99.90
14172;DHT22;7165;52.388;4.928;2024-02-14T05:05:16;11.30;99.90
14172;DHT22;7165;52.388;4.928;2024-02-14T05:07:43;11.30;99.90
14172;DHT22;7165;52.388;4.928;2024-02-14T05:10:10;11.30;99.90
14172;DHT22;7165;52.388;4.928;2024-02-14T05:12:37;11.30;99.90
14172;DHT22;7165;52.388;4.928;2024-02-14T05:15:06;11.30;99.90
14172;DHT22;7165;52.388;4.928;2024-02-14T05:17:33;11.30;99.90
14172;DHT22;7165;52.388;4.928;2024-02-14T05:20:00;11.30;99.90
14172;DHT22;7165;52.388;4.928;2024-02-14T05:22:27;11.30;99.90
14172;DHT22;7165;52.388;4.928;2024-02-14T05:24:54;11.30;99.90
14172;DHT22;7165;52.388;4.928;2024-02-14T05:27:21;11.40;99.90
14172;DHT22;7165;52.388;4.928;2024-02-14T05:29:48;11.40;99.90
14172;DHT22;7165;52.388;4.928;2024-02-14T05:32:17;11.40;99.90
14172;DHT22;7165;52.388;4.928;2024-02-14T05:34:44;11.40;99.90
14172;DHT22;7165;52.388;4.928;2024-02-14T05:37:10;11.40;99.90
14172;DHT22;7165;52.388;4.928;2024-02-14T05:39:38;11.40;99.90
14172;DHT22;7165;52.388;4.928;2024-02-14T05:42:05;11.50;99.90
14172;DHT22;7165;52.388;4.928;2024-02-14T05:44:33;11.40;99.90
14172;DHT22;7165;52.388;4.928;2024-02-14T05:47:00;11.40;99.90
14172;DHT22;7165;52.388;4.928;2024-02-14T05:49:28;11.50;99.90
14172;DHT22;7165;52.388;4.928;2024-02-14T05:51:55;11.40;99.90
14172;DHT22;7165;52.388;4.928;2024-02-14T05:54:21;11.40;99.90
14172;DHT22;7165;52.388;4.928;2024-02-14T05:56:48;11.50;99.90
14172;DHT22;7165;52.388;4.928;2024-02-14T05:59:15;11.50;99.90
14172;DHT22;7165;52.388;4.928;2024-02-14T06:01:42;11.50;99.90
14172;DHT22;7165;52.388;4.928;2024-02-14T06:04:09;11.50;99.90
14172;DHT22;7165;52.388;4.928;2024-02-14T06:06:37;11.50;99.90
14172;DHT22;7165;52.388;4.928;2024-02-14T06:09:04;11.50;99.90
14172;DHT22;7165;52.388;4.928;2024-02-14T06:11:35;11.50;99.90
14172;DHT22;7165;52.388;4.928;2024-02-14T06:14:04;11.50;99.90
14172;DHT22;7165;52.388;4.928;2024-02-14T06:16:32;11.50;99.90
14172;DHT22;7165;52.388;4.928;2024-02-14T06:18:59;11.60;99.90
14172;DHT22;7165;52.388;4.928;2024-02-14T06:21:26;11.60;99.90
14172;DHT22;7165;52.388;4.928;2024-02-14T06:23:54;11.50;99.90
14172;DHT22;7165;52.388;4.928;2024-02-14T06:26:21;11.50;99.90
14172;DHT22;7165;52.388;4.928;2024-02-14T06:28:48;11.50;99.90
14172;DHT22;7165;52.388;4.928;2024-02-14T06:31:19;11.50;99.90
14172;DHT22;7165;52.388;4.928;2024-02-14T06:33:46;11.50;99.90
14172;DHT22;7165;52.388;4.928;2024-02-14T06:36:13;11.50;99.90
14172;DHT22;7165;52.388;4.928;2024-02-14T06:38:40;11.50;99.90
14172;DHT22;7165;52.388;4.928;2024-02-14T06:41:08;11.50;99.90
14172;DHT22;7165;52.388;4.928;2024-02-14T06:43:35;11.40;99.90
14172;DHT22;7165;52.388;4.928;2024-02-14T06:46:04;11.40;99.90
14172;DHT22;7165;52.388;4.928;2024-02-14T06:48:31;11.40;99.90
14172;DHT22;7165;52.388;4.928;2024-02-14T06:50:59;11.40;99.90
14172;DHT22;7165;52.388;4.928;2024-02-14T06:53:26;11.40;99.90
14172;DHT22;7165;52.388;4.928;2024-02-14T06:55:53;11.40;99.90
14172;DHT22;7165;52.388;4.928;2024-02-14T06:58:21;11.40;99.90
14172;DHT22;7165;52.388;4.928;2024-02-14T07:00:48;11.30;99.90
14172;DHT22;7165;52.388;4.928;2024-02-14T07:03:15;11.30;99.90
14172;DHT22;7165;52.388;4.928;2024-02-14T07:05:42;11.30;99.90
14172;DHT22;7165;52.388;4.928;2024-02-14T07:08:09;11.30;99.90
14172;DHT22;7165;52.388;4.928;2024-02-14T07:10:36;11.30;99.90
14172;DHT22;7165;52.388;4.928;2024-02-14T07:13:03;11.30;99.90
14172;DHT22;7165;52.388;4.928;2024-02-14T07:15:31;11.30;99.90
14172;DHT22;7165;52.388;4.928;2024-02-14T07:17:58;11.30;99.90
14172;DHT22;7165;52.388;4.928;2024-02-14T07:20:25;11.30;99.90
14172;DHT22;7165;52.388;4.928;2024-02-14T07:22:52;11.40;99.90
14172;DHT22;7165;52.388;4.928;2024-02-14T07:25:22;11.30;99.90
14172;DHT22;7165;52.388;4.928;2024-02-14T07:27:49;11.40;99.90
14172;DHT22;7165;52.388;4.928;2024-02-14T07:30:16;11.30;99.90
14172;DHT22;7165;52.388;4.928;2024-02-14T07:32:45;11.40;99.90
14172;DHT22;7165;52.388;4.928;2024-02-14T07:35:12;11.40;99.90
14172;DHT22;7165;52.388;4.928;2024-02-14T07:37:40;11.40;99.90
14172;DHT22;7165;52.388;4.928;2024-02-14T07:40:09;11.40;99.90
14172;DHT22;7165;52.388;4.928;2024-02-14T07:42:36;11.40;99.90
14172;DHT22;7165;52.388;4.928;2024-02-14T07:45:04;11.40;99.90
14172;DHT22;7165;52.388;4.928;2024-02-14T07:47:31;11.40;99.90
14172;DHT22;7165;52.388;4.928;2024-02-14T07:49:59;11.40;99.90
14172;DHT22;7165;52.388;4.928;2024-02-14T07:52:26;11.40;99.90
14172;DHT22;7165;52.388;4.928;2024-02-14T07:54:53;11.50;99.90
14172;DHT22;7165;52.388;4.928;2024-02-14T07:57:21;11.40;99.90
14172;DHT22;7165;52.388;4.928;2024-02-14T07:59:48;11.40;99.90
14172;DHT22;7165;52.388;4.928;2024-02-14T08:02:15;11.50;99.90
14172;DHT22;7165;52.388;4.928;2024-02-14T08:04:42;11.50;99.90
14172;DHT22;7165;52.388;4.928;2024-02-14T08:07:10;11.50;99.90
14172;DHT22;7165;52.388;4.928;2024-02-14T08:09:37;11.50;99.90
14172;DHT22;7165;52.388;4.928;2024-02-14T08:12:06;11.60;99.90
14172;DHT22;7165;52.388;4.928;2024-02-14T08:14:33;11.60;99.90
14172;DHT22;7165;52.388;4.928;2024-02-14T08:17:00;11.60;99.90
14172;DHT22;7165;52.388;4.928;2024-02-14T08:19:26;11.60;99.90
14172;DHT22;7165;52.388;4.928;2024-02-14T08:21:53;11.50;99.90
14172;DHT22;7165;52.388;4.928;2024-02-14T08:24:25;11.60;99.90
14172;DHT22;7165;52.388;4.928;2024-02-14T08:26:52;11.60;99.90
14172;DHT22;7165;52.388;4.928;2024-02-14T08:29:23;11.60;99.90
14172;DHT22;7165;52.388;4.928;2024-02-14T08:31:50;11.60;99.90
14172;DHT22;7165;52.388;4.928;2024-02-14T08:34:17;11.60;99.90
14172;DHT22;7165;52.388;4.928;2024-02-14T08:36:44;11.60;99.90
14172;DHT22;7165;52.388;4.928;2024-02-14T08:39:11;11.60;99.90
14172;DHT22;7165;52.388;4.928;2024-02-14T08:41:40;11.60;99.90
14172;DHT22;7165;52.388;4.928;2024-02-14T08:44:09;11.70;99.90
14172;DHT22;7165;52.388;4.928;2024-02-14T08:46:36;11.70;99.90
14172;DHT22;7165;52.388;4.928;2024-02-14T08:49:03;11.70;99.90
14172;DHT22;7165;52.388;4.928;2024-02-14T08:51:34;11.70;99.90
14172;DHT22;7165;52.388;4.928;2024-02-14T08:54:00;11.70;99.90
14172;DHT22;7165;52.388;4.928;2024-02-14T08:56:30;11.70;99.90
14172;DHT22;7165;52.388;4.928;2024-02-14T08:59:00;11.70;99.90
14172;DHT22;7165;52.388;4.928;2024-02-14T09:01:27;11.70;99.90
14172;DHT22;7165;52.388;4.928;2024-02-14T09:03:54;11.70;99.90
14172;DHT22;7165;52.388;4.928;2024-02-14T09:06:21;11.70;99.90
14172;DHT22;7165;52.388;4.928;2024-02-14T09:08:48;11.70;99.90
14172;DHT22;7165;52.388;4.928;2024-02-14T09:11:16;11.80;99.90
14172;DHT22;7165;52.388;4.928;2024-02-14T09:13:43;11.80;99.90
14172;DHT22;7165;52.388;4.928;2024-02-14T09:16:11;11.70;99.90
14172;DHT22;7165;52.388;4.928;2024-02-14T09:18:39;11.70;99.90
14172;DHT22;7165;52.388;4.928;2024-02-14T09:21:06;11.70;99.90
14172;DHT22;7165;52.388;4.928;2024-02-14T09:23:33;11.70;99.90
14172;DHT22;7165;52.388;4.928;2024-02-14T09:26:00;11.80;99.90
14172;DHT22;7165;52.388;4.928;2024-02-14T09:28:27;11.70;99.90
14172;DHT22;7165;52.388;4.928;2024-02-14T09:30:54;11.70;99.90
14172;DHT22;7165;52.388;4.928;2024-02-14T09:33:22;11.70;99.90
14172;DHT22;7165;52.388;4.928;2024-02-14T09:35:49;11.80;99.90
14172;DHT22;7165;52.388;4.928;2024-02-14T09:38:17;11.80;99.90
14172;DHT22;7165;52.388;4.928;2024-02-14T09:40:44;11.80;99.90
14172;DHT22;7165;52.388;4.928;2024-02-14T09:43:17;11.80;99.90
14172;DHT22;7165;52.388;4.928;2024-02-14T09:45:50;11.80;99.90
14172;DHT22;7165;52.388;4.928;2024-02-14T09:48:18;11.80;99.90
14172;DHT22;7165;52.388;4.928;2024-02-14T09:50:48;11.80;99.90
14172;DHT22;7165;52.388;4.928;2024-02-14T09:53:15;11.80;99.90
14172;DHT22;7165;52.388;4.928;2024-02-14T09:55:46;11.80;99.90
14172;DHT22;7165;52.388;4.928;2024-02-14T09:58:13;11.80;99.90
14172;DHT22;7165;52.388;4.928;2024-02-14T10:00:40;11.80;99.90
14172;DHT22;7165;52.388;4.928;2024-02-14T10:03:08;11.80;99.90
14172;DHT22;7165;52.388;4.928;2024-02-14T10:05:35;11.80;99.90
14172;DHT22;7165;52.388;4.928;2024-02-14T10:08:03;11.80;99.90
14172;DHT22;7165;52.388;4.928;2024-02-14T10:10:31;11.80;99.90
14172;DHT22;7165;52.388;4.928;2024-02-14T10:13:00;11.80;99.90
14172;DHT22;7165;52.388;4.928;2024-02-14T10:15:27;11.80;99.90
14172;DHT22;7165;52.388;4.928;2024-02-14T10:17:55;11.80;99.90
14172;DHT22;7165;52.388;4.928;2024-02-14T10:20:23;11.80;99.90
14172;DHT22;7165;52.388;4.928;2024-02-14T10:22:50;11.80;99.90
14172;DHT22;7165;52.388;4.928;2024-02-14T10:25:18;11.80;99.90
14172;DHT22;7165;52.388;4.928;2024-02-14T10:27:47;11.80;99.90
14172;DHT22;7165;52.388;4.928;2024-02-14T10:30:15;11.80;99.90
14172;DHT22;7165;52.388;4.928;2024-02-14T10:32:41;11.80;99.90
14172;DHT22;7165;52.388;4.928;2024-02-14T10:35:13;11.80;99.90
14172;DHT22;7165;52.388;4.928;2024-02-14T10:37:40;11.80;99.90
14172;DHT22;7165;52.388;4.928;2024-02-14T10:40:08;11.80;99.90
14172;DHT22;7165;52.388;4.928;2024-02-14T10:42:37;11.80;99.90
14172;DHT22;7165;52.388;4.928;2024-02-14T10:45:04;11.90;99.90
14172;DHT22;7165;52.388;4.928;2024-02-14T10:47:34;11.90;99.90
14172;DHT22;7165;52.388;4.928;2024-02-14T10:50:03;12.00;99.90
14172;DHT22;7165;52.388;4.928;2024-02-14T10:52:32;12.00;99.90
14172;DHT22;7165;52.388;4.928;2024-02-14T10:55:02;12.10;99.90
14172;DHT22;7165;52.388;4.928;2024-02-14T10:57:29;12.10;99.90
14172;DHT22;7165;52.388;4.928;2024-02-14T11:00:00;12.10;99.90
14172;DHT22;7165;52.388;4.928;2024-02-14T11:02:27;12.20;99.90
14172;DHT22;7165;52.388;4.928;2024-02-14T11:04:56;12.20;99.90
14172;DHT22;7165;52.388;4.928;2024-02-14T11:07:23;12.20;99.90
14172;DHT22;7165;52.388;4.928;2024-02-14T11:10:00;12.20;99.90
14172;DHT22;7165;52.388;4.928;2024-02-14T11:12:31;12.20;99.90
14172;DHT22;7165;52.388;4.928;2024-02-14T11:15:00;12.20;99.90
14172;DHT22;7165;52.388;4.928;2024-02-14T11:17:31;12.20;99.90
14172;DHT22;7165;52.388;4.928;2024-02-14T11:19:58;12.20;99.90
14172;DHT22;7165;52.388;4.928;2024-02-14T11:22:25;12.20;99.90
14172;DHT22;7165;52.388;4.928;2024-02-14T11:24:52;12.20;99.90
14172;DHT22;7165;52.388;4.928;2024-02-14T11:27:20;12.30;99.90
14172;DHT22;7165;52.388;4.928;2024-02-14T11:29:55;12.30;99.90
14172;DHT22;7165;52.388;4.928;2024-02-14T11:32:26;12.40;99.90
14172;DHT22;7165;52.388;4.928;2024-02-14T11:34:54;12.40;99.90
14172;DHT22;7165;52.388;4.928;2024-02-14T11:37:27;12.40;99.90
14172;DHT22;7165;52.388;4.928;2024-02-14T11:39:54;12.30;99.90
14172;DHT22;7165;52.388;4.928;2024-02-14T11:42:22;12.30;99.90
14172;DHT22;7165;52.388;4.928;2024-02-14T11:44:48;12.30;99.90
14172;DHT22;7165;52.388;4.928;2024-02-14T11:47:16;12.30;99.90
14172;DHT22;7165;52.388;4.928;2024-02-14T11:49:44;12.40;99.90
14172;DHT22;7165;52.388;4.928;2024-02-14T11:52:12;12.40;99.90
14172;DHT22;7165;52.388;4.928;2024-02-14T11:54:39;12.50;99.90
14172;DHT22;7165;52.388;4.928;2024-02-14T11:57:06;12.50;99.90
14172;DHT22;7165;52.388;4.928;2024-02-14T11:59:34;12.40;99.90
14172;DHT22;7165;52.388;4.928;2024-02-14T12:02:02;12.50;99.90
14172;DHT22;7165;52.388;4.928;2024-02-14T12:04:29;12.50;99.90
14172;DHT22;7165;52.388;4.928;2024-02-14T12:06:58;12.50;99.90
14172;DHT22;7165;52.388;4.928;2024-02-14T12:09:25;12.50;99.90
14172;DHT22;7165;52.388;4.928;2024-02-14T12:11:52;12.50;99.90
14172;DHT22;7165;52.388;4.928;2024-02-14T12:14:22;12.50;99.90
14172;DHT22;7165;52.388;4.928;2024-02-14T12:16:50;12.50;99.90
14172;DHT22;7165;52.388;4.928;2024-02-14T12:19:17;12.50;99.90
14172;DHT22;7165;52.388;4.928;2024-02-14T12:21:44;12.50;99.90
14172;DHT22;7165;52.388;4.928;2024-02-14T12:24:14;12.50;99.90
14172;DHT22;7165;52.388;4.928;2024-02-14T12:26:42;12.50;99.90
14172;DHT22;7165;52.388;4.928;2024-02-14T12:29:11;12.50;99.90
14172;DHT22;7165;52.388;4.928;2024-02-14T12:31:39;12.50;99.90
14172;DHT22;7165;52.388;4.928;2024-02-14T12:34:11;12.50;99.90
14172;DHT22;7165;52.388;4.928;2024-02-14T12:36:38;12.50;99.90
14172;DHT22;7165;52.388;4.928;2024-02-14T12:39:04;12.50;99.90
14172;DHT22;7165;52.388;4.928;2024-02-14T12:41:33;12.50;99.90
14172;DHT22;7165;52.388;4.928;2024-02-14T12:44:00;12.50;99.90
14172;DHT22;7165;52.388;4.928;2024-02-14T12:46:27;12.50;99.90
14172;DHT22;7165;52.388;4.928;2024-02-14T12:48:55;12.50;99.90
14172;DHT22;7165;52.388;4.928;2024-02-14T12:51:22;12.50;99.90
14172;DHT22;7165;52.388;4.928;2024-02-14T12:53:53;12.50;99.90
14172;DHT22;7165;52.388;4.928;2024-02-14T12:56:20;12.50;99.90
14172;DHT22;7165;52.388;4.928;2024-02-14T12:58:49;12.50;99.90
14172;DHT22;7165;52.388;4.928;2024-02-14T13:01:16;12.50;99.90
14172;DHT22;7165;52.388;4.928;2024-02-14T13:03:43;12.50;99.90
14172;DHT22;7165;52.388;4.928;2024-02-14T13:06:10;12.60;99.90
14172;DHT22;7165;52.388;4.928;2024-02-14T13:08:37;12.60;99.90
14172;DHT22;7165;52.388;4.928;2024-02-14T13:11:05;12.60;99.90
14172;DHT22;7165;52.388;4.928;2024-02-14T13:13:36;12.60;99.90
14172;DHT22;7165;52.388;4.928;2024-02-14T13:16:05;12.60;99.90
14172;DHT22;7165;52.388;4.928;2024-02-14T13:18:32;12.60;99.90
14172;DHT22;7165;52.388;4.928;2024-02-14T13:21:00;12.60;99.90
14172;DHT22;7165;52.388;4.928;2024-02-14T13:23:27;12.50;99.90
14172;DHT22;7165;52.388;4.928;2024-02-14T13:25:54;12.50;99.90
14172;DHT22;7165;52.388;4.928;2024-02-14T13:28:21;12.50;99.90
14172;DHT22;7165;52.388;4.928;2024-02-14T13:30:48;12.50;99.90
14172;DHT22;7165;52.388;4.928;2024-02-14T13:33:16;12.50;99.90
14172;DHT22;7165;52.388;4.928;2024-02-14T13:35:43;12.50;99.90
14172;DHT22;7165;52.388;4.928;2024-02-14T13:38:10;12.50;99.90
14172;DHT22;7165;52.388;4.928;2024-02-14T13:40:37;12.50;99.90
14172;DHT22;7165;52.388;4.928;2024-02-14T13:43:04;12.50;99.90
14172;DHT22;7165;52.388;4.928;2024-02-14T13:45:40;12.50;99.90
14172;DHT22;7165;52.388;4.928;2024-02-14T13:48:09;12.50;99.90
14172;DHT22;7165;52.388;4.928;2024-02-14T13:50:37;12.50;99.90
14172;DHT22;7165;52.388;4.928;2024-02-14T13:53:06;12.50;99.90
14172;DHT22;7165;52.388;4.928;2024-02-14T13:55:33;12.50;99.90
14172;DHT22;7165;52.388;4.928;2024-02-14T13:58:00;12.60;99.90
14172;DHT22;7165;52.388;4.928;2024-02-14T14:00:27;12.60;99.90
14172;DHT22;7165;52.388;4.928;2024-02-14T14:02:54;12.60;99.90
14172;DHT22;7165;52.388;4.928;2024-02-14T14:05:21;12.60;99.90
14172;DHT22;7165;52.388;4.928;2024-02-14T14:07:49;12.60;99.90
14172;DHT22;7165;52.388;4.928;2024-02-14T14:10:16;12.60;99.90
14172;DHT22;7165;52.388;4.928;2024-02-14T14:12:43;12.60;99.90
14172;DHT22;7165;52.388;4.928;2024-02-14T14:15:10;12.60;99.90
14172;DHT22;7165;52.388;4.928;2024-02-14T14:17:36;12.60;99.90
14172;DHT22;7165;52.388;4.928;2024-02-14T14:20:04;12.60;99.90
14172;DHT22;7165;52.388;4.928;2024-02-14T14:22:33;12.60;99.90
14172;DHT22;7165;52.388;4.928;2024-02-14T14:25:02;12.60;99.90
14172;DHT22;7165;52.388;4.928;2024-02-14T14:27:30;12.60;99.90
14172;DHT22;7165;52.388;4.928;2024-02-14T14:29:57;12.60;99.90
14172;DHT22;7165;52.388;4.928;2024-02-14T14:32:24;12.60;99.90
14172;DHT22;7165;52.388;4.928;2024-02-14T14:34:51;12.50;99.90
14172;DHT22;7165;52.388;4.928;2024-02-14T14:37:17;12.50;99.90
14172;DHT22;7165;52.388;4.928;2024-02-14T14:39:44;12.50;99.90
14172;DHT22;7165;52.388;4.928;2024-02-14T14:42:12;12.50;99.90
14172;DHT22;7165;52.388;4.928;2024-02-14T14:44:39;12.50;99.90
14172;DHT22;7165;52.388;4.928;2024-02-14T14:47:07;12.50;99.90
14172;DHT22;7165;52.388;4.928;2024-02-14T14:49:35;12.50;99.90
14172;DHT22;7165;52.388;4.928;2024-02-14T14:52:04;12.50;99.90
14172;DHT22;7165;52.388;4.928;2024-02-14T14:54:31;12.50;99.90
14172;DHT22;7165;52.388;4.928;2024-02-14T14:56:58;12.60;99.90
14172;DHT22;7165;52.388;4.928;2024-02-14T14:59:26;12.60;99.90
14172;DHT22;7165;52.388;4.928;2024-02-14T15:01:53;12.60;99.90
14172;DHT22;7165;52.388;4.928;2024-02-14T15:04:20;12.60;99.90
14172;DHT22;7165;52.388;4.928;2024-02-14T15:06:47;12.60;99.90
14172;DHT22;7165;52.388;4.928;2024-02-14T15:09:16;12.60;99.90
14172;DHT22;7165;52.388;4.928;2024-02-14T15:11:44;12.60;99.90
14172;DHT22;7165;52.388;4.928;2024-02-14T15:14:11;12.60;99.90
14172;DHT22;7165;52.388;4.928;2024-02-14T15:16:39;12.60;99.90
14172;DHT22;7165;52.388;4.928;2024-02-14T15:19:06;12.60;99.90
14172;DHT22;7165;52.388;4.928;2024-02-14T15:21:33;12.60;99.90
14172;DHT22;7165;52.388;4.928;2024-02-14T15:24:00;12.60;99.90
14172;DHT22;7165;52.388;4.928;2024-02-14T15:26:27;12.60;99.90
14172;DHT22;7165;52.388;4.928;2024-02-14T15:28:55;12.60;99.90
14172;DHT22;7165;52.388;4.928;2024-02-14T15:31:43;12.60;99.90
14172;DHT22;7165;52.388;4.928;2024-02-14T15:34:28;12.60;99.90
14172;DHT22;7165;52.388;4.928;2024-02-14T15:36:55;12.60;99.90
14172;DHT22;7165;52.388;4.928;2024-02-14T15:39:22;12.60;99.90
14172;DHT22;7165;52.388;4.928;2024-02-14T15:41:49;12.60;99.90
14172;DHT22;7165;52.388;4.928;2024-02-14T15:44:16;12.60;99.90
14172;DHT22;7165;52.388;4.928;2024-02-14T15:46:44;12.60;99.90
14172;DHT22;7165;52.388;4.928;2024-02-14T15:49:11;12.60;99.90